Time;durP1;ratioP1;P1;durP2;ratioP2;P2;SDS_P1;SDS_P2;PMS_P1;PMS_P2;Temp;Humidity;BMP_temperature;BMP_pressure;BME280_temperature;BME280_humidity;BME280_pressure;Samples;Min_cycle;Max_cycle;Signal;HPM_P1;HPM_P2
2023/12/24 00:01:06;;;;;;;;;;;6.40;99.90;;;;;;5045159;28;19920;-74
2023/12/24 00:03:32;;;;;;;;;;;6.40;99.90;;;;;;5050372;28;19916;-74
2023/12/24 00:05:58;;;;;;;;;;;6.40;99.90;;;;;;5044825;28;19968;-75
2023/12/24 00:08:24;;;;;;;;;;;6.40;99.90;;;;;;5032832;28;19921;-76
2023/12/24 00:10:50;;;;;;;;;;;6.40;99.90;;;;;;5029305;28;19928;-75
2023/12/24 00:13:15;;;;;;;;;;;6.40;99.90;;;;;;5047783;28;20345;-74
2023/12/24 00:15:41;;;;;;;;;;;6.40;99.90;;;;;;5043720;28;19914;-74
2023/12/24 00:18:07;;;;;;;;;;;6.40;99.90;;;;;;5043032;28;20007;-75
2023/12/24 00:20:32;;;;;;;;;;;6.40;99.90;;;;;;5044226;28;19917;-75
2023/12/24 00:23:08;;;;;;;;;;;6.40;99.90;;;;;;5049180;28;19948;-75
2023/12/24 00:25:34;;;;;;;;;;;6.40;99.90;;;;;;5045570;28;20368;-75
2023/12/24 00:28:00;;;;;;;;;;;6.30;99.90;;;;;;5047730;28;19963;-74
2023/12/24 00:30:26;;;;;;;;;;;6.30;99.90;;;;;;5029346;28;19960;-75
2023/12/24 00:32:55;;;;;;;;;;;6.30;99.90;;;;;;5013612;28;19921;-75
2023/12/24 00:35:20;;;;;;;;;;;6.40;99.90;;;;;;5028449;28;19966;-74
2023/12/24 00:37:49;;;;;;;;;;;6.30;99.90;;;;;;5027594;28;20028;-75
2023/12/24 00:40:16;;;;;;;;;;;6.40;99.90;;;;;;5027342;28;20410;-76
2023/12/24 00:42:42;;;;;;;;;;;6.30;99.90;;;;;;5047775;28;20027;-75
2023/12/24 00:45:09;;;;;;;;;;;6.40;99.90;;;;;;5036505;28;19909;-75
2023/12/24 00:47:36;;;;;;;;;;;6.40;99.90;;;;;;5046328;28;20071;-75
2023/12/24 00:50:02;;;;;;;;;;;6.40;99.90;;;;;;5046708;28;19996;-75
2023/12/24 00:52:28;;;;;;;;;;;6.40;99.90;;;;;;5047797;28;20081;-75
2023/12/24 00:54:53;;;;;;;;;;;6.40;99.90;;;;;;5050109;28;19921;-75
2023/12/24 00:57:19;;;;;;;;;;;6.30;99.90;;;;;;5027896;28;20628;-75
2023/12/24 00:59:44;;;;;;;;;;;6.40;99.90;;;;;;5030337;28;19924;-75
2023/12/24 01:02:10;;;;;;;;;;;6.40;99.90;;;;;;5028487;28;20509;-75
2023/12/24 01:04:35;;;;;;;;;;;6.40;99.90;;;;;;5028788;28;20407;-76
2023/12/24 01:07:01;;;;;;;;;;;6.40;99.90;;;;;;5046216;28;20010;-75
2023/12/24 01:09:27;;;;;;;;;;;6.40;99.90;;;;;;5048298;28;20848;-76
2023/12/24 01:11:53;;;;;;;;;;;6.40;99.90;;;;;;5046514;28;20293;-76
2023/12/24 01:14:18;;;;;;;;;;;6.40;99.90;;;;;;5048635;28;19920;-75
2023/12/24 01:16:44;;;;;;;;;;;6.40;99.90;;;;;;5045811;28;19917;-75
2023/12/24 01:19:10;;;;;;;;;;;6.50;99.90;;;;;;5046743;28;19924;-75
2023/12/24 01:21:36;;;;;;;;;;;6.40;99.90;;;;;;5045877;28;19924;-75
2023/12/24 01:24:02;;;;;;;;;;;6.40;99.90;;;;;;5031979;28;19916;-75
2023/12/24 01:26:27;;;;;;;;;;;6.40;99.90;;;;;;5026429;28;19923;-75
2023/12/24 01:28:53;;;;;;;;;;;6.40;99.90;;;;;;5047283;28;19920;-75
2023/12/24 01:31:20;;;;;;;;;;;6.40;99.90;;;;;;5047654;28;20288;-75
2023/12/24 01:33:45;;;;;;;;;;;6.40;99.90;;;;;;5031234;28;19920;-75
2023/12/24 01:36:11;;;;;;;;;;;6.40;99.90;;;;;;5026174;28;19919;-75
2023/12/24 01:38:36;;;;;;;;;;;6.40;99.90;;;;;;5045195;28;19920;-75
2023/12/24 01:41:03;;;;;;;;;;;6.50;99.90;;;;;;5029124;28;19960;-75
2023/12/24 01:43:28;;;;;;;;;;;6.50;99.90;;;;;;5029828;28;20388;-75
2023/12/24 01:45:54;;;;;;;;;;;6.50;99.90;;;;;;5030677;28;19927;-75
2023/12/24 01:48:21;;;;;;;;;;;6.40;99.90;;;;;;5049218;28;19973;-75
2023/12/24 01:50:47;;;;;;;;;;;6.50;99.90;;;;;;5029821;28;19921;-75
2023/12/24 01:53:14;;;;;;;;;;;6.50;99.90;;;;;;5045523;28;19928;-75
2023/12/24 01:55:40;;;;;;;;;;;6.50;99.90;;;;;;5044937;28;19913;-76
2023/12/24 01:58:06;;;;;;;;;;;6.50;99.90;;;;;;5028421;28;19920;-76
2023/12/24 02:00:31;;;;;;;;;;;6.50;99.90;;;;;;5022759;28;20419;-76
2023/12/24 02:02:58;;;;;;;;;;;6.50;99.90;;;;;;5027282;28;20428;-76
2023/12/24 02:05:25;;;;;;;;;;;6.50;99.90;;;;;;5045515;28;19939;-76
2023/12/24 02:07:51;;;;;;;;;;;6.40;99.90;;;;;;5027709;28;20352;-76
2023/12/24 02:10:17;;;;;;;;;;;6.40;99.90;;;;;;5046692;28;20292;-76
2023/12/24 02:12:43;;;;;;;;;;;6.40;99.90;;;;;;5028945;28;20300;-75
2023/12/24 02:15:09;;;;;;;;;;;6.40;99.90;;;;;;5026480;28;19923;-76
2023/12/24 02:17:35;;;;;;;;;;;6.50;99.90;;;;;;5047129;28;19917;-76
2023/12/24 02:20:00;;;;;;;;;;;6.50;99.90;;;;;;5047423;28;19917;-77
2023/12/24 02:22:27;;;;;;;;;;;6.40;99.90;;;;;;5044869;28;19932;-76
2023/12/24 02:24:54;;;;;;;;;;;6.40;99.90;;;;;;5029325;28;19913;-76
2023/12/24 02:27:19;;;;;;;;;;;6.50;99.90;;;;;;5028195;28;19921;-76
2023/12/24 02:29:46;;;;;;;;;;;6.50;99.90;;;;;;5047370;28;19920;-75
2023/12/24 02:32:15;;;;;;;;;;;6.50;99.90;;;;;;5025345;28;19917;-76
2023/12/24 02:34:45;;;;;;;;;;;6.50;99.90;;;;;;5045119;28;20436;-76
2023/12/24 02:37:12;;;;;;;;;;;6.50;99.90;;;;;;5024120;28;20339;-76
2023/12/24 02:39:38;;;;;;;;;;;6.50;99.90;;;;;;5028360;28;19917;-76
2023/12/24 02:42:05;;;;;;;;;;;6.60;99.90;;;;;;5044794;28;20391;-75
2023/12/24 02:44:31;;;;;;;;;;;6.50;99.90;;;;;;5045450;28;19913;-76
2023/12/24 02:46:57;;;;;;;;;;;6.60;99.90;;;;;;5028236;28;19963;-76
2023/12/24 02:49:23;;;;;;;;;;;6.60;99.90;;;;;;5047431;28;19956;-75
2023/12/24 02:51:48;;;;;;;;;;;6.60;99.90;;;;;;5030080;28;19925;-76
2023/12/24 02:54:14;;;;;;;;;;;6.60;99.90;;;;;;5029423;28;19920;-75
2023/12/24 02:56:40;;;;;;;;;;;6.60;99.90;;;;;;5023910;28;19914;-75
2023/12/24 02:59:06;;;;;;;;;;;6.60;99.90;;;;;;5029223;28;19966;-76
2023/12/24 03:01:32;;;;;;;;;;;6.60;99.90;;;;;;5024728;28;20359;-76
2023/12/24 03:03:58;;;;;;;;;;;6.50;99.90;;;;;;5047352;28;19923;-76
2023/12/24 03:06:24;;;;;;;;;;;6.50;99.90;;;;;;5043997;28;19917;-75
2023/12/24 03:08:50;;;;;;;;;;;6.60;99.90;;;;;;5046215;28;21394;-75
2023/12/24 03:11:15;;;;;;;;;;;6.60;99.90;;;;;;5041516;28;19917;-75
2023/12/24 03:13:41;;;;;;;;;;;6.60;99.90;;;;;;5027784;28;19924;-75
2023/12/24 03:16:06;;;;;;;;;;;6.60;99.90;;;;;;5043856;28;20076;-76
2023/12/24 03:18:32;;;;;;;;;;;6.60;99.90;;;;;;5040105;28;20285;-76
2023/12/24 03:20:59;;;;;;;;;;;6.60;99.90;;;;;;5029056;28;19999;-76
2023/12/24 03:23:25;;;;;;;;;;;6.60;99.90;;;;;;5046533;28;19921;-75
2023/12/24 03:25:50;;;;;;;;;;;6.60;99.90;;;;;;5045724;28;19948;-76
2023/12/24 03:28:17;;;;;;;;;;;6.60;99.90;;;;;;5047590;28;19917;-76
2023/12/24 03:30:43;;;;;;;;;;;6.70;99.90;;;;;;5025488;28;20015;-76
2023/12/24 03:33:11;;;;;;;;;;;6.70;99.90;;;;;;5029523;28;19920;-76
2023/12/24 03:35:37;;;;;;;;;;;6.70;99.90;;;;;;5042488;28;20314;-76
2023/12/24 03:38:03;;;;;;;;;;;6.70;99.90;;;;;;5029140;28;19920;-77
2023/12/24 03:40:29;;;;;;;;;;;6.70;99.90;;;;;;5044622;28;19925;-77
2023/12/24 03:42:55;;;;;;;;;;;6.70;99.90;;;;;;5047282;28;19928;-77
2023/12/24 03:45:20;;;;;;;;;;;6.70;99.90;;;;;;5028425;28;19923;-76
2023/12/24 03:47:46;;;;;;;;;;;6.70;99.90;;;;;;5028616;28;19917;-76
2023/12/24 03:50:12;;;;;;;;;;;6.70;99.90;;;;;;5046210;28;20388;-77
2023/12/24 03:52:43;;;;;;;;;;;6.70;99.90;;;;;;5031870;28;20007;-75
2023/12/24 03:55:09;;;;;;;;;;;6.70;99.90;;;;;;5050828;28;19920;-76
2023/12/24 03:57:35;;;;;;;;;;;6.70;99.90;;;;;;5044807;28;20422;-75
2023/12/24 04:00:01;;;;;;;;;;;6.70;99.90;;;;;;5030183;28;19917;-76
2023/12/24 04:02:26;;;;;;;;;;;6.70;99.90;;;;;;5014955;28;19986;-75
2023/12/24 04:04:52;;;;;;;;;;;6.70;99.90;;;;;;5049596;28;19944;-76
2023/12/24 04:07:18;;;;;;;;;;;6.70;99.90;;;;;;5049320;28;19999;-76
2023/12/24 04:09:43;;;;;;;;;;;6.70;99.90;;;;;;5040263;28;19913;-75
2023/12/24 04:12:09;;;;;;;;;;;6.70;99.90;;;;;;5044235;28;19924;-76
2023/12/24 04:14:38;;;;;;;;;;;6.70;99.90;;;;;;5033725;28;19913;-76
2023/12/24 04:17:05;;;;;;;;;;;6.70;99.90;;;;;;5026576;28;19913;-76
2023/12/24 04:19:31;;;;;;;;;;;6.70;99.90;;;;;;5031160;28;19975;-76
2023/12/24 04:21:57;;;;;;;;;;;6.70;99.90;;;;;;5032646;28;19923;-75
2023/12/24 04:24:24;;;;;;;;;;;6.70;99.90;;;;;;5031781;28;19946;-76
2023/12/24 04:26:50;;;;;;;;;;;6.60;99.90;;;;;;5028574;28;20011;-76
2023/12/24 04:29:16;;;;;;;;;;;6.70;99.90;;;;;;5033241;28;20015;-75
2023/12/24 04:31:42;;;;;;;;;;;6.70;99.90;;;;;;5029697;28;20355;-76
2023/12/24 04:34:07;;;;;;;;;;;6.70;99.90;;;;;;5047696;28;19916;-76
2023/12/24 04:36:33;;;;;;;;;;;6.70;99.90;;;;;;5045789;28;19914;-76
2023/12/24 04:38:59;;;;;;;;;;;6.70;99.90;;;;;;5048643;28;19916;-76
2023/12/24 04:41:28;;;;;;;;;;;6.70;99.90;;;;;;5046605;28;19916;-75
2023/12/24 04:43:57;;;;;;;;;;;6.70;99.90;;;;;;5031183;28;19931;-75
2023/12/24 04:46:22;;;;;;;;;;;6.70;99.90;;;;;;5048932;28;19972;-76
2023/12/24 04:48:49;;;;;;;;;;;6.70;99.90;;;;;;5028036;28;19916;-76
2023/12/24 04:51:15;;;;;;;;;;;6.70;99.90;;;;;;5031232;28;19920;-75
2023/12/24 04:53:40;;;;;;;;;;;6.70;99.90;;;;;;5033180;28;19913;-76
2023/12/24 04:56:17;;;;;;;;;;;6.60;99.90;;;;;;5028951;28;19916;-80
2023/12/24 04:58:43;;;;;;;;;;;6.60;99.90;;;;;;5048240;28;19913;-75
2023/12/24 05:01:08;;;;;;;;;;;6.70;99.90;;;;;;5027232;28;20031;-76
2023/12/24 05:03:34;;;;;;;;;;;6.60;99.90;;;;;;5030903;28;19917;-76
2023/12/24 05:05:59;;;;;;;;;;;6.60;99.90;;;;;;5048092;28;19977;-76
2023/12/24 05:08:25;;;;;;;;;;;6.60;99.90;;;;;;5028884;28;19921;-76
2023/12/24 05:10:53;;;;;;;;;;;6.60;99.90;;;;;;5030590;28;20456;-77
2023/12/24 05:13:18;;;;;;;;;;;6.60;99.90;;;;;;5028042;28;19924;-74
2023/12/24 05:15:44;;;;;;;;;;;6.60;99.90;;;;;;5028591;28;19928;-75
2023/12/24 05:18:10;;;;;;;;;;;6.60;99.90;;;;;;5032410;28;19917;-75
2023/12/24 05:20:35;;;;;;;;;;;6.60;99.90;;;;;;5045923;28;19924;-76
2023/12/24 05:23:01;;;;;;;;;;;6.60;99.90;;;;;;5049458;28;20311;-75
2023/12/24 05:25:27;;;;;;;;;;;6.60;99.90;;;;;;5046777;28;19974;-75
2023/12/24 05:27:53;;;;;;;;;;;6.60;99.90;;;;;;5047751;28;20376;-75
2023/12/24 05:30:18;;;;;;;;;;;6.60;99.90;;;;;;5045907;28;19925;-75
2023/12/24 05:32:44;;;;;;;;;;;6.60;99.90;;;;;;5047123;28;19917;-75
2023/12/24 05:35:09;;;;;;;;;;;6.60;99.90;;;;;;5046668;28;19916;-75
2023/12/24 05:37:35;;;;;;;;;;;6.60;99.90;;;;;;5046435;28;19920;-75
2023/12/24 05:40:01;;;;;;;;;;;6.60;99.90;;;;;;5049020;28;20372;-75
2023/12/24 05:42:26;;;;;;;;;;;6.60;99.90;;;;;;5048270;28;19917;-75
2023/12/24 05:44:52;;;;;;;;;;;6.60;99.90;;;;;;5049596;28;19927;-75
2023/12/24 05:47:17;;;;;;;;;;;6.60;99.90;;;;;;5045946;28;19917;-75
2023/12/24 05:49:43;;;;;;;;;;;6.60;99.90;;;;;;5043951;28;19921;-76
2023/12/24 05:52:08;;;;;;;;;;;6.60;99.90;;;;;;5027279;28;19932;-76
2023/12/24 05:54:34;;;;;;;;;;;6.60;99.90;;;;;;5047134;28;19913;-76
2023/12/24 05:57:00;;;;;;;;;;;6.50;99.90;;;;;;5046920;28;20365;-75
2023/12/24 05:59:25;;;;;;;;;;;6.50;99.90;;;;;;5047308;28;19927;-75
2023/12/24 06:01:51;;;;;;;;;;;6.50;99.90;;;;;;5048125;28;19929;-75
2023/12/24 06:04:16;;;;;;;;;;;6.50;99.90;;;;;;5047645;28;20000;-75
2023/12/24 06:06:42;;;;;;;;;;;6.50;99.90;;;;;;5027911;28;19925;-75
2023/12/24 06:09:08;;;;;;;;;;;6.50;99.90;;;;;;5045901;28;19997;-75
2023/12/24 06:11:33;;;;;;;;;;;6.50;99.90;;;;;;5044079;28;19924;-75
2023/12/24 06:13:59;;;;;;;;;;;6.50;99.90;;;;;;5047460;28;19921;-75
2023/12/24 06:16:24;;;;;;;;;;;6.50;99.90;;;;;;5044885;28;20292;-75
2023/12/24 06:18:53;;;;;;;;;;;6.50;99.90;;;;;;5047081;28;19952;-77
2023/12/24 06:21:21;;;;;;;;;;;6.50;99.90;;;;;;5046383;28;20035;-76
2023/12/24 06:23:47;;;;;;;;;;;6.50;99.90;;;;;;5048629;28;20398;-76
2023/12/24 06:26:12;;;;;;;;;;;6.50;99.90;;;;;;5029322;28;19920;-76
2023/12/24 06:28:38;;;;;;;;;;;6.40;99.90;;;;;;5048671;28;19917;-75
2023/12/24 06:31:04;;;;;;;;;;;6.40;99.90;;;;;;5044986;28;19973;-76
2023/12/24 06:33:29;;;;;;;;;;;6.40;99.90;;;;;;5044977;28;19925;-75
2023/12/24 06:35:55;;;;;;;;;;;6.40;99.90;;;;;;5045468;28;20010;-76
2023/12/24 06:38:20;;;;;;;;;;;6.40;99.90;;;;;;5046289;28;19924;-75
2023/12/24 06:40:46;;;;;;;;;;;6.40;99.90;;;;;;5047344;28;19986;-76
2023/12/24 06:43:11;;;;;;;;;;;6.40;99.90;;;;;;5049191;28;20285;-76
2023/12/24 06:45:37;;;;;;;;;;;6.40;99.90;;;;;;5042274;28;19913;-75
2023/12/24 06:48:03;;;;;;;;;;;6.30;99.90;;;;;;5045525;28;19917;-76
2023/12/24 06:50:29;;;;;;;;;;;6.30;99.90;;;;;;5044313;28;19967;-75
2023/12/24 06:52:55;;;;;;;;;;;6.30;99.90;;;;;;5045070;28;19921;-76
2023/12/24 06:55:21;;;;;;;;;;;6.30;99.90;;;;;;5042309;28;20004;-76
2023/12/24 06:57:47;;;;;;;;;;;6.30;99.90;;;;;;5046162;28;20015;-77
2023/12/24 07:00:12;;;;;;;;;;;6.30;99.90;;;;;;5044634;28;19967;-76
2023/12/24 07:02:38;;;;;;;;;;;6.30;99.90;;;;;;5047855;28;19917;-76
2023/12/24 07:05:04;;;;;;;;;;;6.30;99.90;;;;;;5048461;28;20540;-76
2023/12/24 07:07:29;;;;;;;;;;;6.30;99.90;;;;;;5047369;28;19921;-76
2023/12/24 07:09:55;;;;;;;;;;;6.30;99.90;;;;;;5042255;28;20319;-76
2023/12/24 07:12:21;;;;;;;;;;;6.30;99.90;;;;;;5045850;28;19967;-77
2023/12/24 07:14:47;;;;;;;;;;;6.30;99.90;;;;;;5044748;28;20376;-77
2023/12/24 07:17:12;;;;;;;;;;;6.30;99.90;;;;;;5031979;28;19933;-76
2023/12/24 07:19:38;;;;;;;;;;;6.30;99.90;;;;;;5046855;28;19956;-76
2023/12/24 07:22:03;;;;;;;;;;;6.30;99.90;;;;;;5047071;28;20470;-76
2023/12/24 07:24:29;;;;;;;;;;;6.30;99.90;;;;;;5047564;28;19929;-76
2023/12/24 07:26:54;;;;;;;;;;;6.30;99.90;;;;;;5049331;28;19921;-76
2023/12/24 07:29:20;;;;;;;;;;;6.30;99.90;;;;;;5051845;28;19917;-76
2023/12/24 07:31:46;;;;;;;;;;;6.30;99.90;;;;;;5049181;28;19931;-76
2023/12/24 07:34:12;;;;;;;;;;;6.30;99.90;;;;;;5049517;28;19964;-77
2023/12/24 07:36:37;;;;;;;;;;;6.30;99.90;;;;;;5048241;28;19943;-77
2023/12/24 07:39:03;;;;;;;;;;;6.30;99.90;;;;;;5051781;28;19917;-76
2023/12/24 07:41:30;;;;;;;;;;;6.30;99.90;;;;;;5051418;28;20381;-76
2023/12/24 07:43:55;;;;;;;;;;;6.30;99.90;;;;;;5050843;28;20316;-76
2023/12/24 07:46:21;;;;;;;;;;;6.30;99.90;;;;;;5046050;28;19917;-76
2023/12/24 07:48:47;;;;;;;;;;;6.30;99.90;;;;;;5049130;28;20300;-76
2023/12/24 07:51:15;;;;;;;;;;;6.30;99.90;;;;;;5036194;28;19917;-76
2023/12/24 07:53:42;;;;;;;;;;;6.30;99.90;;;;;;5050132;28;20408;-77
2023/12/24 07:56:08;;;;;;;;;;;6.30;99.90;;;;;;5045257;28;19978;-77
2023/12/24 07:58:34;;;;;;;;;;;6.40;99.90;;;;;;5032412;28;19917;-77
2023/12/24 08:01:00;;;;;;;;;;;6.40;99.90;;;;;;5049453;28;19921;-76
2023/12/24 08:03:25;;;;;;;;;;;6.40;99.90;;;;;;5028904;28;19924;-76
2023/12/24 08:05:51;;;;;;;;;;;6.40;99.90;;;;;;5048453;28;19970;-76
2023/12/24 08:08:16;;;;;;;;;;;6.40;99.90;;;;;;5030727;28;19923;-77
2023/12/24 08:10:42;;;;;;;;;;;6.40;99.90;;;;;;5049143;28;19921;-76
2023/12/24 08:13:08;;;;;;;;;;;6.40;99.90;;;;;;5048893;28;19960;-76
2023/12/24 08:15:33;;;;;;;;;;;6.50;99.90;;;;;;5048504;28;20016;-76
2023/12/24 08:17:59;;;;;;;;;;;6.50;99.90;;;;;;5035014;28;19925;-77
2023/12/24 08:20:25;;;;;;;;;;;6.50;99.90;;;;;;5051819;28;19970;-76
2023/12/24 08:22:51;;;;;;;;;;;6.50;99.90;;;;;;5051577;28;20381;-76
2023/12/24 08:25:16;;;;;;;;;;;6.50;99.90;;;;;;5048988;28;19913;-77
2023/12/24 08:27:45;;;;;;;;;;;6.50;99.90;;;;;;5044618;28;19924;-76
2023/12/24 08:30:11;;;;;;;;;;;6.50;99.90;;;;;;5037728;28;19912;-76
2023/12/24 08:32:36;;;;;;;;;;;6.50;99.90;;;;;;5026710;28;20046;-76
2023/12/24 08:35:03;;;;;;;;;;;6.50;99.90;;;;;;5033440;28;19979;-76
2023/12/24 08:37:29;;;;;;;;;;;6.50;99.90;;;;;;5047799;28;19939;-77
2023/12/24 08:39:54;;;;;;;;;;;6.50;99.90;;;;;;5047175;28;20389;-77
2023/12/24 08:42:20;;;;;;;;;;;6.50;99.90;;;;;;5051182;28;19917;-76
2023/12/24 08:44:46;;;;;;;;;;;6.60;99.90;;;;;;5047836;28;19936;-77
2023/12/24 08:47:11;;;;;;;;;;;6.60;99.90;;;;;;5047264;28;20384;-78
2023/12/24 08:49:37;;;;;;;;;;;6.60;99.90;;;;;;5045975;28;19957;-78
2023/12/24 08:52:02;;;;;;;;;;;6.60;99.90;;;;;;5044363;28;19951;-76
2023/12/24 08:54:28;;;;;;;;;;;6.60;99.90;;;;;;5025618;28;19916;-78
2023/12/24 08:56:54;;;;;;;;;;;6.60;99.90;;;;;;5046576;28;19924;-76
2023/12/24 08:59:19;;;;;;;;;;;6.60;99.90;;;;;;5050503;28;19921;-77
2023/12/24 09:01:45;;;;;;;;;;;6.60;99.90;;;;;;5046232;28;19917;-77
2023/12/24 09:04:11;;;;;;;;;;;6.60;99.90;;;;;;5050336;28;19917;-78
2023/12/24 09:06:37;;;;;;;;;;;6.60;99.90;;;;;;5046812;28;19923;-77
2023/12/24 09:09:03;;;;;;;;;;;6.60;99.90;;;;;;5045899;28;19920;-77
2023/12/24 09:11:29;;;;;;;;;;;6.70;99.90;;;;;;5046860;28;19920;-79
2023/12/24 09:13:54;;;;;;;;;;;6.70;99.90;;;;;;5049917;28;19936;-78
2023/12/24 09:16:20;;;;;;;;;;;6.70;99.90;;;;;;5048335;28;19944;-78
2023/12/24 09:18:46;;;;;;;;;;;6.70;99.90;;;;;;5049607;28;19978;-78
2023/12/24 09:21:11;;;;;;;;;;;6.70;99.90;;;;;;5047897;28;19920;-78
2023/12/24 09:23:37;;;;;;;;;;;6.80;99.90;;;;;;5033689;28;19921;-78
2023/12/24 09:26:02;;;;;;;;;;;6.80;99.90;;;;;;5046581;28;19921;-78
2023/12/24 09:28:28;;;;;;;;;;;6.80;99.90;;;;;;5048507;28;19928;-77
2023/12/24 09:30:54;;;;;;;;;;;6.80;99.90;;;;;;5048180;28;19913;-77
2023/12/24 09:33:20;;;;;;;;;;;6.80;99.90;;;;;;5045470;28;19917;-77
2023/12/24 09:35:46;;;;;;;;;;;6.80;99.90;;;;;;5043981;28;19970;-77
2023/12/24 09:38:11;;;;;;;;;;;6.80;99.90;;;;;;5046864;28;19924;-77
2023/12/24 09:40:37;;;;;;;;;;;6.90;99.90;;;;;;5046695;28;19973;-77
2023/12/24 09:43:03;;;;;;;;;;;6.90;99.90;;;;;;5045778;28;20196;-77
2023/12/24 09:45:32;;;;;;;;;;;7.00;99.90;;;;;;5043606;28;19921;-77
2023/12/24 09:47:57;;;;;;;;;;;7.00;99.90;;;;;;5048658;28;19920;-76
2023/12/24 09:50:23;;;;;;;;;;;7.00;99.90;;;;;;5028736;28;19917;-77
2023/12/24 09:52:48;;;;;;;;;;;7.00;99.90;;;;;;5046940;28;20357;-77
2023/12/24 09:55:14;;;;;;;;;;;7.00;99.90;;;;;;5046608;28;19917;-77
2023/12/24 09:57:40;;;;;;;;;;;7.00;99.90;;;;;;5048335;28;19917;-77
2023/12/24 10:00:09;;;;;;;;;;;7.00;99.90;;;;;;5048308;28;19929;-77
2023/12/24 10:02:34;;;;;;;;;;;7.10;99.90;;;;;;5048523;28;20307;-77
2023/12/24 10:05:02;;;;;;;;;;;7.10;99.90;;;;;;5047554;28;19917;-77
2023/12/24 10:07:36;;;;;;;;;;;7.10;99.90;;;;;;5046139;28;19966;-77
2023/12/24 10:10:02;;;;;;;;;;;7.10;99.90;;;;;;5046154;28;19912;-77
2023/12/24 10:12:27;;;;;;;;;;;7.20;99.90;;;;;;5025825;28;19944;-77
2023/12/24 10:14:58;;;;;;;;;;;7.20;99.90;;;;;;5044362;28;19924;-76
2023/12/24 10:17:36;;;;;;;;;;;7.20;99.90;;;;;;5048889;28;20368;-77
2023/12/24 10:20:03;;;;;;;;;;;7.20;99.90;;;;;;5046202;28;19959;-77
2023/12/24 10:22:29;;;;;;;;;;;7.20;99.90;;;;;;5044586;28;19940;-77
2023/12/24 10:25:01;;;;;;;;;;;7.20;99.90;;;;;;5045409;28;19940;-76
2023/12/24 10:27:27;;;;;;;;;;;7.20;99.90;;;;;;5046104;28;19967;-76
2023/12/24 10:29:53;;;;;;;;;;;7.20;99.90;;;;;;5048859;28;19917;-76
2023/12/24 10:32:24;;;;;;;;;;;7.20;99.90;;;;;;5045897;28;19999;-77
2023/12/24 10:34:55;;;;;;;;;;;7.20;99.90;;;;;;5045601;28;19960;-77
2023/12/24 10:37:26;;;;;;;;;;;7.20;99.90;;;;;;5046226;28;19913;-77
2023/12/24 10:39:52;;;;;;;;;;;7.20;99.90;;;;;;5047994;28;20027;-77
2023/12/24 10:42:19;;;;;;;;;;;7.20;99.90;;;;;;5046809;28;19913;-77
2023/12/24 10:44:45;;;;;;;;;;;7.20;99.90;;;;;;5047888;28;19928;-78
2023/12/24 10:47:11;;;;;;;;;;;7.20;99.90;;;;;;5047256;28;19917;-77
2023/12/24 10:49:37;;;;;;;;;;;7.20;99.90;;;;;;5045842;28;20415;-77
2023/12/24 10:52:03;;;;;;;;;;;7.20;99.90;;;;;;5047245;28;19917;-76
2023/12/24 10:54:29;;;;;;;;;;;7.20;99.90;;;;;;5044504;28;20378;-77
2023/12/24 10:57:13;;;;;;;;;;;7.20;99.90;;;;;;5047920;28;20007;-77
2023/12/24 10:59:39;;;;;;;;;;;7.20;99.90;;;;;;5046464;28;20461;-76
2023/12/24 11:02:10;;;;;;;;;;;7.20;99.90;;;;;;5025399;28;20016;-77
2023/12/24 11:04:43;;;;;;;;;;;7.30;99.90;;;;;;5043289;28;19917;-76
2023/12/24 11:07:08;;;;;;;;;;;7.30;99.90;;;;;;5047021;28;20003;-77
2023/12/24 11:09:34;;;;;;;;;;;7.30;99.90;;;;;;5047712;28;20012;-76
2023/12/24 11:12:00;;;;;;;;;;;7.30;99.90;;;;;;5048364;28;19963;-77
2023/12/24 11:14:51;;;;;;;;;;;7.30;99.90;;;;;;5048528;28;20440;-77
2023/12/24 11:17:39;;;;;;;;;;;7.30;99.90;;;;;;5043054;28;20003;-77
2023/12/24 11:20:18;;;;;;;;;;;7.30;99.90;;;;;;5041051;28;19917;-77
2023/12/24 11:23:02;;;;;;;;;;;7.40;99.90;;;;;;5042331;28;19969;-77
2023/12/24 11:25:44;;;;;;;;;;;7.40;99.90;;;;;;5046753;28;20015;-77
2023/12/24 11:28:12;;;;;;;;;;;7.40;99.90;;;;;;5046110;28;20351;-77
2023/12/24 11:30:49;;;;;;;;;;;7.50;99.90;;;;;;5040632;28;20000;-77
2023/12/24 11:33:36;;;;;;;;;;;7.40;99.90;;;;;;5044900;28;19917;-77
2023/12/24 11:36:11;;;;;;;;;;;7.40;99.90;;;;;;5045805;28;19919;-77
2023/12/24 11:38:37;;;;;;;;;;;7.40;99.90;;;;;;5047812;28;20446;-77
2023/12/24 11:41:06;;;;;;;;;;;7.50;99.90;;;;;;5044159;28;19917;-77
2023/12/24 11:43:32;;;;;;;;;;;7.50;99.90;;;;;;5047489;28;20751;-77
2023/12/24 11:45:58;;;;;;;;;;;7.50;99.90;;;;;;5043458;28;19944;-77
2023/12/24 11:48:27;;;;;;;;;;;7.40;99.90;;;;;;5047657;28;20376;-77
2023/12/24 11:51:08;;;;;;;;;;;7.50;99.90;;;;;;5039447;28;19916;-77
2023/12/24 11:53:35;;;;;;;;;;;7.40;99.90;;;;;;5044284;28;20054;-78
2023/12/24 11:56:14;;;;;;;;;;;7.50;99.90;;;;;;5041161;28;19944;-76
2023/12/24 11:59:09;;;;;;;;;;;7.50;99.90;;;;;;5038074;28;19913;-78
2023/12/24 12:01:36;;;;;;;;;;;7.50;99.90;;;;;;5043730;28;19924;-78
2023/12/24 12:04:03;;;;;;;;;;;7.40;99.90;;;;;;5043399;28;20025;-78
2023/12/24 12:06:29;;;;;;;;;;;7.40;99.90;;;;;;5044186;28;20411;-77
2023/12/24 12:08:55;;;;;;;;;;;7.40;99.90;;;;;;5044716;28;19970;-77
2023/12/24 12:11:21;;;;;;;;;;;7.40;99.90;;;;;;5045619;28;19970;-77
2023/12/24 12:13:47;;;;;;;;;;;7.40;99.90;;;;;;5045709;28;19920;-77
2023/12/24 12:16:13;;;;;;;;;;;7.40;99.90;;;;;;5045973;28;19916;-76
2023/12/24 12:18:39;;;;;;;;;;;7.40;99.90;;;;;;5029066;28;19923;-76
2023/12/24 12:21:04;;;;;;;;;;;7.40;99.90;;;;;;5046687;28;19925;-77
2023/12/24 12:23:30;;;;;;;;;;;7.40;99.90;;;;;;5027470;28;19921;-76
2023/12/24 12:25:56;;;;;;;;;;;7.40;99.90;;;;;;5044037;28;19941;-77
2023/12/24 12:28:22;;;;;;;;;;;7.50;99.90;;;;;;5044480;28;19917;-76
2023/12/24 12:30:48;;;;;;;;;;;7.40;99.90;;;;;;5048984;28;19921;-77
2023/12/24 12:33:14;;;;;;;;;;;7.40;99.90;;;;;;5050467;28;19920;-76
2023/12/24 12:35:39;;;;;;;;;;;7.40;99.90;;;;;;5051187;28;19974;-77
2023/12/24 12:38:05;;;;;;;;;;;7.40;99.90;;;;;;5034459;28;20027;-76
2023/12/24 12:40:31;;;;;;;;;;;7.40;99.90;;;;;;5045234;28;20404;-77
2023/12/24 12:42:57;;;;;;;;;;;7.40;99.90;;;;;;5023493;28;19917;-76
2023/12/24 12:45:23;;;;;;;;;;;7.40;99.90;;;;;;5046830;28;20301;-76
2023/12/24 12:47:48;;;;;;;;;;;7.40;99.90;;;;;;5049890;28;19917;-76
2023/12/24 12:50:14;;;;;;;;;;;7.40;99.90;;;;;;5049769;28;20300;-76
2023/12/24 12:52:40;;;;;;;;;;;7.40;99.90;;;;;;5049699;28;19927;-76
2023/12/24 12:55:06;;;;;;;;;;;7.40;99.90;;;;;;5047858;28;19996;-76
2023/12/24 12:57:33;;;;;;;;;;;7.40;99.90;;;;;;5041606;28;19956;-76
2023/12/24 13:00:07;;;;;;;;;;;7.40;99.90;;;;;;5047235;28;19923;-76
2023/12/24 13:02:33;;;;;;;;;;;7.40;99.90;;;;;;5045475;28;19920;-76
2023/12/24 13:04:59;;;;;;;;;;;7.50;99.90;;;;;;5042468;28;19927;-76
2023/12/24 13:07:28;;;;;;;;;;;7.50;99.90;;;;;;5047662;28;19924;-76
2023/12/24 13:09:54;;;;;;;;;;;7.50;99.90;;;;;;5032142;28;19939;-76
2023/12/24 13:12:20;;;;;;;;;;;7.50;99.90;;;;;;5051093;28;20400;-77
2023/12/24 13:14:52;;;;;;;;;;;7.50;99.90;;;;;;5047712;28;19913;-76
2023/12/24 13:17:24;;;;;;;;;;;7.50;99.90;;;;;;5033026;28;19913;-76
2023/12/24 13:19:51;;;;;;;;;;;7.50;99.90;;;;;;5038615;28;19921;-76
2023/12/24 13:22:18;;;;;;;;;;;7.50;99.90;;;;;;5043294;28;19947;-75
2023/12/24 13:24:44;;;;;;;;;;;7.50;99.90;;;;;;5048841;28;19925;-76
2023/12/24 13:27:09;;;;;;;;;;;7.50;99.90;;;;;;5046539;28;20268;-76
2023/12/24 13:29:35;;;;;;;;;;;7.50;99.90;;;;;;5046030;28;19916;-76
2023/12/24 13:32:01;;;;;;;;;;;7.50;99.90;;;;;;5041771;28;19993;-76
2023/12/24 13:34:27;;;;;;;;;;;7.50;99.90;;;;;;5046853;28;20126;-76
2023/12/24 13:36:52;;;;;;;;;;;7.50;99.90;;;;;;5048773;28;19916;-76
2023/12/24 13:39:19;;;;;;;;;;;7.50;99.90;;;;;;5045380;28;19964;-77
2023/12/24 13:41:45;;;;;;;;;;;7.40;99.90;;;;;;5030352;28;19919;-76
2023/12/24 13:44:10;;;;;;;;;;;7.50;99.90;;;;;;5048902;28;19920;-76
2023/12/24 13:46:36;;;;;;;;;;;7.50;99.90;;;;;;5049715;28;19913;-76
2023/12/24 13:49:03;;;;;;;;;;;7.50;99.90;;;;;;5049383;28;19951;-75
2023/12/24 13:51:30;;;;;;;;;;;7.50;99.90;;;;;;5048113;28;19927;-76
2023/12/24 13:53:58;;;;;;;;;;;7.40;99.90;;;;;;5047516;28;19916;-75
2023/12/24 13:56:23;;;;;;;;;;;7.50;99.90;;;;;;5047632;28;19994;-78
2023/12/24 13:58:49;;;;;;;;;;;7.50;99.90;;;;;;5048913;28;19921;-77
2023/12/24 14:01:14;;;;;;;;;;;7.40;99.90;;;;;;5047076;28;19917;-77
2023/12/24 14:03:40;;;;;;;;;;;7.40;99.90;;;;;;5052802;28;19924;-78
2023/12/24 14:06:06;;;;;;;;;;;7.40;99.90;;;;;;5052008;28;20001;-78
2023/12/24 14:08:32;;;;;;;;;;;7.40;99.90;;;;;;5048787;28;19964;-78
2023/12/24 14:10:58;;;;;;;;;;;7.40;99.90;;;;;;5048511;28;20316;-78
2023/12/24 14:13:23;;;;;;;;;;;7.50;99.90;;;;;;5016252;28;19952;-77
2023/12/24 14:15:49;;;;;;;;;;;7.40;99.90;;;;;;5050793;28;19967;-77
2023/12/24 14:18:15;;;;;;;;;;;7.40;99.90;;;;;;5049015;28;20004;-77
2023/12/24 14:20:41;;;;;;;;;;;7.40;99.90;;;;;;5050580;28;19958;-77
2023/12/24 14:23:08;;;;;;;;;;;7.40;99.90;;;;;;5050273;28;20400;-77
2023/12/24 14:25:33;;;;;;;;;;;7.40;99.90;;;;;;5050145;28;19924;-78
2023/12/24 14:27:59;;;;;;;;;;;7.40;99.90;;;;;;5052449;28;20020;-77